Valle Puerto Real, Puerto Rico
Current Conditions -  °F | °C
As of 4:53 PM on Tuesday 21 Oct 2014 (Local Time) from TJNR Reporting Station
Broken Clouds Broken Clouds  
Wind Chill: 84°   Ceiling: 3300
Heat Index: 92°   Visibility: 10mi
Dew Point: 75°   Wind: 7mph
Humidity: 74%   Direction: 70°ENE
Pressure: 29.92"   Gusts: NA
Location:  18.3201°N, 65.6502°W
Report Text: TJNR 212053Z AUTO 07006KT 10SM SCT027 BKN033 29/24 A2992 RMK AO2 SLP132 T02890239 56004
Loading
Personal Weather Stations






























Interactive Weather Map
Tropical Storm Tracking
New forecast layout! Learn more

10-Day Weather Forecast

Advertisements
Track Severe Weather on mobile